createdAt,value
2023-01-12T00:02:22.454Z,39.27
2023-01-12T00:07:25.487Z,40.86
2023-01-12T00:12:28.661Z,40.73
2023-01-12T00:17:31.854Z,41.73
2023-01-12T00:22:34.741Z,40.38
2023-01-12T00:27:37.514Z,41.62
2023-01-12T00:32:40.374Z,42.07
2023-01-12T00:37:43.303Z,41.26
2023-01-12T00:43:04.344Z,41.66
2023-01-12T00:48:07.194Z,42.66
2023-01-12T00:53:10.103Z,42.24
2023-01-12T00:58:12.944Z,42.11
2023-01-12T01:03:15.763Z,40.91
2023-01-12T01:08:18.581Z,41.82
2023-01-12T01:13:21.551Z,40.74
2023-01-12T01:18:27.303Z,41.97
2023-01-12T01:23:33.461Z,41.60
2023-01-12T01:28:38.379Z,42.05
2023-01-12T01:33:41.892Z,43.07
2023-01-12T01:38:46.774Z,41.04
2023-01-12T01:44:26.170Z,41.34
2023-01-12T01:49:34.500Z,41.99
2023-01-12T01:54:44.303Z,41.05
2023-01-12T01:59:53.289Z,41.08
2023-01-12T02:04:57.039Z,39.62
2023-01-12T02:09:59.927Z,41.45
2023-01-12T02:15:21.977Z,40.80
2023-01-12T02:20:37.619Z,41.27
2023-01-12T02:25:46.198Z,41.13
2023-01-12T02:31:23.293Z,39.81
2023-01-12T02:36:52.335Z,40.42
2023-01-12T02:42:16.747Z,41.00
2023-01-12T02:47:26.055Z,40.67
2023-01-12T02:52:33.898Z,41.00
2023-01-12T02:57:38.212Z,40.38
2023-01-12T03:02:41.082Z,40.59
2023-01-12T03:07:59.294Z,42.08
2023-01-12T03:13:06.692Z,41.83
2023-01-12T03:18:12.261Z,42.89
2023-01-12T03:23:28.128Z,42.16
2023-01-12T03:28:36.093Z,43.16
2023-01-12T03:33:41.351Z,42.94
2023-01-12T03:38:52.661Z,41.59
2023-01-12T03:44:02.629Z,40.82
2023-01-12T03:49:08.912Z,41.68
2023-01-12T03:54:13.751Z,40.47
2023-01-12T03:59:17.173Z,41.56
2023-01-12T04:04:20.584Z,42.18
2023-01-12T04:09:25.707Z,40.86
2023-01-12T04:14:28.440Z,42.25
2023-01-12T04:19:31.298Z,40.79
2023-01-12T04:24:34.390Z,40.56
2023-01-12T04:29:37.296Z,39.93
2023-01-12T04:34:40.131Z,41.32
2023-01-12T04:39:43.349Z,41.54
2023-01-12T04:44:46.115Z,40.56
2023-01-12T04:49:49.121Z,40.68
2023-01-12T04:54:51.956Z,41.37
2023-01-12T04:59:55.040Z,42.70
2023-01-12T05:04:57.849Z,41.47
2023-01-12T05:10:19.150Z,42.71
2023-01-12T05:15:25.228Z,42.08
2023-01-12T05:20:28.131Z,40.98
2023-01-12T05:25:33.105Z,40.86
2023-01-12T05:30:36.038Z,43.27
2023-01-12T05:35:39.006Z,44.66
2023-01-12T05:40:47.385Z,43.96
2023-01-12T05:45:50.321Z,43.37
2023-01-12T05:50:53.516Z,40.50
2023-01-12T05:55:56.821Z,38.94
2023-01-12T06:00:59.786Z,38.51
2023-01-12T06:06:03.187Z,38.33
2023-01-12T06:11:06.105Z,39.10
2023-01-12T06:16:09.558Z,40.06
2023-01-12T06:21:12.853Z,39.65
2023-01-12T06:26:16.539Z,40.92
2023-01-12T06:39:23.390Z,40.98
2023-01-12T06:44:26.372Z,41.19
2023-01-12T06:50:05.443Z,41.22
2023-01-12T06:55:13.762Z,40.96
2023-01-12T07:00:17.571Z,39.50
2023-01-12T07:05:20.894Z,40.17
2023-01-12T07:11:19.649Z,39.57
2023-01-12T07:16:22.598Z,38.87
2023-01-12T07:21:25.670Z,40.30
2023-01-12T07:26:28.612Z,38.93
2023-01-12T07:31:31.733Z,39.46
2023-01-12T07:36:34.699Z,40.42
2023-01-12T07:41:56.774Z,43.28
2023-01-12T07:47:00.125Z,42.68
2023-01-12T07:52:03.432Z,41.37
2023-01-12T07:57:11.343Z,40.44
2023-01-12T08:02:18.489Z,42.21
2023-01-12T08:07:21.407Z,42.25
2023-01-12T08:12:24.576Z,42.64
2023-01-12T08:17:27.966Z,41.67
2023-01-12T08:22:40.242Z,42.28
2023-01-12T08:27:46.468Z,43.62
2023-01-12T08:32:49.470Z,44.39
2023-01-12T08:37:52.843Z,43.16
2023-01-12T08:43:00.906Z,44.09
2023-01-12T08:48:03.852Z,43.48
2023-01-12T08:53:07.016Z,44.03
2023-01-12T08:58:10.032Z,43.84
2023-01-12T09:03:13.353Z,43.84
2023-01-12T09:08:16.545Z,42.72
2023-01-12T09:13:19.528Z,42.08
2023-01-12T09:18:22.385Z,44.11
2023-01-12T09:23:25.636Z,43.83
2023-01-12T09:28:28.872Z,44.01
2023-01-12T09:33:32.910Z,44.75
2023-01-12T09:38:38.027Z,44.00
2023-01-12T09:44:00.401Z,44.25
2023-01-12T09:49:04.764Z,45.63
2023-01-12T09:54:07.885Z,45.25
2023-01-12T09:59:22.509Z,46.45
2023-01-12T10:04:30.984Z,44.30
2023-01-12T10:09:35.014Z,45.90
2023-01-12T10:14:52.651Z,45.97
2023-01-12T10:20:06.143Z,46.54
2023-01-12T10:25:33.990Z,47.97
2023-01-12T10:30:40.921Z,46.85
2023-01-12T10:36:05.098Z,47.82
2023-01-12T10:41:21.033Z,47.68
2023-01-12T10:46:27.247Z,46.68
2023-01-12T10:51:31.202Z,45.99
2023-01-12T10:56:45.187Z,46.74
2023-01-12T11:01:51.603Z,46.28
2023-01-12T11:07:26.003Z,46.68
2023-01-12T11:12:39.779Z,45.47
2023-01-12T11:17:52.261Z,47.05
2023-01-12T11:22:59.963Z,47.55
2023-01-12T11:28:29.451Z,49.23
2023-01-12T11:33:41.865Z,47.32
2023-01-12T11:38:51.304Z,48.21
2023-01-12T11:44:27.073Z,47.03
2023-01-12T11:49:42.765Z,48.45
2023-01-12T11:54:46.007Z,47.89
2023-01-12T12:00:32.830Z,47.14
2023-01-12T12:05:49.686Z,47.38
2023-01-12T12:11:09.458Z,48.29
2023-01-12T12:16:43.879Z,48.22
2023-01-12T12:21:51.206Z,47.59
2023-01-12T12:27:16.817Z,47.00
2023-01-12T12:32:26.178Z,47.61
2023-01-12T12:37:53.893Z,47.25
2023-01-12T12:43:36.854Z,46.43
2023-01-12T12:48:59.552Z,46.79
2023-01-12T12:54:07.048Z,47.18
2023-01-12T12:59:32.399Z,45.01
2023-01-12T13:04:44.112Z,45.46
2023-01-12T13:09:47.061Z,46.19
2023-01-12T13:15:12.423Z,46.65
2023-01-12T13:20:24.879Z,46.41
2023-01-12T13:25:29.887Z,45.78
2023-01-12T13:30:32.714Z,45.95
2023-01-12T13:35:35.704Z,45.87
2023-01-12T13:40:39.020Z,45.91
2023-01-12T13:45:55.613Z,44.08
2023-01-12T13:51:22.771Z,44.72
2023-01-12T13:56:26.709Z,45.05
2023-01-12T14:01:34.452Z,45.06
2023-01-12T14:07:11.436Z,45.44
2023-01-12T14:13:11.187Z,43.96
2023-01-12T14:18:17.474Z,43.99
2023-01-12T14:23:29.810Z,43.66
2023-01-12T14:28:33.660Z,43.46
2023-01-12T14:33:39.059Z,42.31
2023-01-12T14:38:44.495Z,40.49
2023-01-12T14:44:06.346Z,41.09
2023-01-12T14:49:21.705Z,40.58
2023-01-12T14:54:28.163Z,39.96
2023-01-12T14:59:36.982Z,40.96
2023-01-12T15:05:00.791Z,39.67
2023-01-12T15:10:23.476Z,39.06
2023-01-12T15:15:50.713Z,39.34
2023-01-12T15:21:12.275Z,39.08
2023-01-12T15:26:15.064Z,39.67
2023-01-12T15:31:34.057Z,39.66
2023-01-12T15:36:37.072Z,39.94
2023-01-12T15:41:58.920Z,39.55
2023-01-12T15:47:01.636Z,39.17
2023-01-12T15:52:04.645Z,39.59
2023-01-12T15:57:10.999Z,40.64
2023-01-12T16:02:39.245Z,40.31
2023-01-12T16:07:42.196Z,40.08
2023-01-12T16:12:46.117Z,39.75
2023-01-12T16:17:49.964Z,40.19
2023-01-12T16:22:52.808Z,40.86
2023-01-12T16:28:00.807Z,39.72
2023-01-12T16:33:03.820Z,40.06
2023-01-12T16:38:06.688Z,39.97
2023-01-12T16:43:09.671Z,40.35
2023-01-12T16:48:12.444Z,39.71
2023-01-12T16:53:15.508Z,39.46
2023-01-12T16:58:19.412Z,40.61
2023-01-12T17:03:22.659Z,40.87
2023-01-12T17:08:25.588Z,39.79
2023-01-12T17:13:28.653Z,39.81
2023-01-12T17:18:31.708Z,39.46
2023-01-12T17:23:34.774Z,39.73
2023-01-12T17:28:37.575Z,39.26
2023-01-12T17:33:41.110Z,39.08
2023-01-12T17:38:44.226Z,38.77
2023-01-12T17:43:48.091Z,39.35
2023-01-12T17:48:51.100Z,39.07
2023-01-12T17:53:58.239Z,38.69
2023-01-12T17:59:01.495Z,39.51
2023-01-12T18:04:05.200Z,39.49
2023-01-12T18:09:09.546Z,40.28
2023-01-12T18:14:12.788Z,40.01
2023-01-12T18:19:15.671Z,40.59
2023-01-12T18:24:18.780Z,40.41
2023-01-12T18:29:21.392Z,39.80
2023-01-12T18:34:24.353Z,40.42
2023-01-12T18:39:27.425Z,39.99
2023-01-12T18:44:31.822Z,40.78
2023-01-12T18:49:36.651Z,40.60
2023-01-12T18:54:44.435Z,41.36
2023-01-12T18:59:48.435Z,40.35
2023-01-12T19:04:51.510Z,41.03
2023-01-12T19:09:54.279Z,40.94
2023-01-12T19:15:33.468Z,41.41
2023-01-12T19:20:40.069Z,41.46
2023-01-12T19:26:02.019Z,41.64
2023-01-12T19:31:11.189Z,40.76
2023-01-12T19:36:16.323Z,40.71
2023-01-12T19:41:37.478Z,41.30
2023-01-12T19:46:40.624Z,41.73
2023-01-12T19:51:46.275Z,41.91
2023-01-12T19:56:49.241Z,41.39
2023-01-12T20:01:54.223Z,42.57
2023-01-12T20:06:57.513Z,42.01
2023-01-12T20:12:00.342Z,42.42
2023-01-12T20:17:03.469Z,42.77
2023-01-12T20:22:06.308Z,42.88
2023-01-12T20:27:09.318Z,42.88
2023-01-12T20:32:12.505Z,42.95
2023-01-12T20:37:15.324Z,43.17
2023-01-12T20:42:18.159Z,42.98
2023-01-12T20:47:21.695Z,43.50
2023-01-12T20:52:25.159Z,43.46
2023-01-12T20:57:28.575Z,43.75
2023-01-12T21:02:31.338Z,43.96
2023-01-12T21:07:34.185Z,44.02
2023-01-12T21:12:37.056Z,44.59
2023-01-12T21:17:40.523Z,42.67
2023-01-12T21:22:43.316Z,42.70
2023-01-12T21:27:46.113Z,43.91
2023-01-12T21:32:49.123Z,44.14
2023-01-12T21:37:51.932Z,43.46
2023-01-12T21:43:09.482Z,43.95
2023-01-12T21:48:15.077Z,43.72
2023-01-12T21:53:21.792Z,44.71
2023-01-12T21:58:25.727Z,43.40
2023-01-12T22:03:29.282Z,44.56
2023-01-12T22:08:34.204Z,44.45
2023-01-12T22:13:38.103Z,44.23
2023-01-12T22:18:45.207Z,45.38
2023-01-12T22:23:49.420Z,44.46
2023-01-12T22:28:52.114Z,45.07
2023-01-12T22:34:05.184Z,44.84
2023-01-12T22:39:08.236Z,44.26
2023-01-12T22:44:11.194Z,45.00
2023-01-12T22:49:14.162Z,43.18
2023-01-12T22:54:17.184Z,43.45
2023-01-12T22:59:20.022Z,45.47
2023-01-12T23:04:23.078Z,44.60
2023-01-12T23:09:25.915Z,45.63
2023-01-12T23:14:28.687Z,45.56
2023-01-12T23:19:32.082Z,46.17
2023-01-12T23:24:34.882Z,46.59
2023-01-12T23:29:38.822Z,46.77
2023-01-12T23:34:41.691Z,46.60
2023-01-12T23:39:44.628Z,46.64
2023-01-12T23:44:47.448Z,46.47
2023-01-12T23:49:50.406Z,47.25
2023-01-12T23:54:56.035Z,45.82
2023-01-12T23:59:58.906Z,47.01
